createdAt,value
2023-01-24T00:01:07.205Z,57.67
2023-01-24T00:03:50.588Z,59.40
2023-01-24T00:06:26.582Z,54.95
2023-01-24T00:09:04.524Z,63.30
2023-01-24T00:11:37.183Z,64.88
2023-01-24T00:14:09.932Z,82.20
2023-01-24T00:16:49.995Z,58.65
2023-01-24T00:19:31.142Z,58.17
2023-01-24T00:22:11.669Z,62.10
2023-01-24T00:24:49.603Z,54.45
2023-01-24T00:27:36.062Z,52.88
2023-01-24T00:30:12.291Z,52.00
2023-01-24T00:32:47.186Z,48.17
2023-01-24T00:35:22.182Z,49.28
2023-01-24T00:38:06.064Z,59.83
2023-01-24T00:40:41.489Z,50.22
2023-01-24T00:43:20.573Z,57.47
2023-01-24T00:45:56.129Z,50.92
2023-01-24T00:48:34.361Z,59.70
2023-01-24T00:51:12.683Z,56.97
2023-01-24T00:53:54.135Z,47.67
2023-01-24T00:56:34.765Z,45.90
2023-01-24T00:59:12.126Z,46.33
2023-01-24T01:01:49.676Z,41.50
2023-01-24T01:04:25.197Z,39.35
2023-01-24T01:07:05.262Z,41.88
2023-01-24T01:09:42.268Z,46.85
2023-01-24T01:12:14.531Z,46.65
2023-01-24T01:14:48.039Z,59.70
2023-01-24T01:17:23.992Z,56.42
2023-01-24T01:19:59.810Z,57.53
2023-01-24T01:22:47.881Z,62.70
2023-01-24T01:25:28.368Z,58.20
2023-01-24T01:28:06.511Z,58.08
2023-01-24T01:30:48.162Z,73.20
2023-01-24T01:33:26.092Z,105.93
2023-01-24T01:36:04.804Z,96.00
2023-01-24T01:38:37.445Z,100.07
2023-01-24T01:41:18.242Z,87.50
2023-01-24T01:44:06.716Z,78.57
2023-01-24T01:46:51.333Z,76.45
2023-01-24T01:49:35.049Z,78.45
2023-01-24T01:54:48.434Z,73.07
2023-01-24T01:57:28.924Z,70.07
2023-01-24T02:00:04.882Z,72.10
2023-01-24T02:02:51.081Z,67.27
2023-01-24T02:05:29.102Z,77.43
2023-01-24T02:08:04.746Z,83.60
2023-01-24T02:10:55.755Z,79.05
2023-01-24T02:13:36.071Z,77.35
2023-01-24T02:16:11.503Z,74.72
2023-01-24T02:18:50.984Z,96.35
2023-01-24T02:21:28.541Z,91.03
2023-01-24T02:24:18.388Z,84.55
2023-01-24T02:26:55.379Z,74.47
2023-01-24T02:29:34.048Z,77.65
2023-01-24T02:32:22.309Z,77.30
2023-01-24T02:34:52.910Z,78.53
2023-01-24T02:37:39.216Z,64.70
2023-01-24T02:40:16.952Z,104.30
2023-01-24T02:42:49.523Z,83.63
2023-01-24T02:45:29.156Z,97.57
2023-01-24T02:48:10.041Z,76.90
2023-01-24T02:51:01.774Z,84.90
2023-01-24T02:53:42.399Z,75.68
2023-01-24T02:56:32.979Z,84.53
2023-01-24T02:59:09.031Z,75.57
2023-01-24T03:01:48.090Z,73.47
2023-01-24T03:04:30.418Z,87.03
2023-01-24T03:07:06.039Z,74.78
2023-01-24T03:09:47.996Z,69.10
2023-01-24T03:12:41.122Z,64.95
2023-01-24T03:15:32.224Z,65.20
2023-01-24T03:18:18.469Z,58.30
2023-01-24T03:21:10.579Z,58.65
2023-01-24T03:24:02.437Z,60.92
2023-01-24T03:26:53.821Z,56.15
2023-01-24T03:29:43.833Z,60.67
2023-01-24T03:32:36.201Z,55.58
2023-01-24T03:35:08.758Z,59.55
2023-01-24T03:38:00.508Z,50.00
2023-01-24T03:40:41.688Z,63.65
2023-01-24T03:43:16.443Z,57.25
2023-01-24T03:45:46.953Z,53.13
2023-01-24T03:48:37.805Z,49.05
2023-01-24T03:51:31.207Z,56.63
2023-01-24T03:54:15.847Z,55.83
2023-01-24T03:57:03.402Z,61.97
2023-01-24T03:59:39.084Z,52.38
2023-01-24T04:02:17.285Z,54.40
2023-01-24T04:05:07.708Z,51.45
2023-01-24T04:07:43.001Z,54.33
2023-01-24T04:10:20.663Z,44.90
2023-01-24T04:13:03.235Z,48.50
2023-01-24T04:15:39.638Z,50.92
2023-01-24T04:18:34.774Z,51.95
2023-01-24T04:21:18.211Z,54.00
2023-01-24T04:23:53.773Z,45.60
2023-01-24T04:26:30.038Z,48.60
2023-01-24T04:29:03.141Z,52.72
2023-01-24T04:31:38.367Z,51.50
2023-01-24T04:34:38.998Z,59.08
2023-01-24T04:37:23.225Z,51.90
2023-01-24T04:40:04.116Z,49.70
2023-01-24T04:42:38.346Z,46.08
2023-01-24T04:45:16.847Z,50.72
2023-01-24T04:47:54.048Z,47.47
2023-01-24T04:50:39.016Z,54.13
2023-01-24T04:53:21.753Z,45.03
2023-01-24T04:56:05.671Z,47.77
2023-01-24T04:58:43.263Z,46.08
2023-01-24T05:01:16.025Z,42.17
2023-01-24T05:04:03.931Z,41.97
2023-01-24T05:06:39.492Z,48.85
2023-01-24T05:09:18.653Z,48.83
2023-01-24T05:12:05.680Z,44.65
2023-01-24T05:14:40.259Z,51.47
2023-01-24T05:17:20.190Z,54.40
2023-01-24T05:19:56.248Z,43.63
2023-01-24T05:22:34.992Z,55.67
2023-01-24T05:25:08.191Z,55.60
2023-01-24T05:27:50.089Z,60.28
2023-01-24T05:30:20.025Z,49.20
2023-01-24T05:33:02.486Z,54.92
2023-01-24T05:35:40.067Z,50.92
2023-01-24T05:38:17.951Z,62.15
2023-01-24T05:40:53.908Z,56.85
2023-01-24T05:43:29.351Z,63.63
2023-01-24T05:46:13.435Z,61.97
2023-01-24T05:48:55.001Z,60.00
2023-01-24T05:51:25.877Z,63.17
2023-01-24T05:54:12.131Z,59.40
2023-01-24T05:57:08.379Z,71.00
2023-01-24T06:00:07.396Z,61.95
2023-01-24T06:02:49.190Z,72.03
2023-01-24T06:05:24.633Z,64.32
2023-01-24T06:08:02.476Z,61.80
2023-01-24T06:10:43.220Z,67.75
2023-01-24T06:13:17.410Z,63.28
2023-01-24T06:16:01.076Z,64.30
2023-01-24T06:18:37.889Z,58.42
2023-01-24T06:21:25.205Z,59.47
2023-01-24T06:24:02.369Z,56.72
2023-01-24T06:26:55.249Z,55.85
2023-01-24T06:29:30.707Z,56.58
2023-01-24T06:32:20.112Z,59.15
2023-01-24T06:35:37.940Z,51.90
2023-01-24T06:38:26.017Z,54.53
2023-01-24T06:41:07.259Z,48.80
2023-01-24T06:43:42.374Z,57.90
2023-01-24T06:46:23.783Z,52.92
2023-01-24T06:48:56.835Z,50.42
2023-01-24T06:51:34.776Z,54.85
2023-01-24T06:54:14.047Z,54.78
2023-01-24T06:56:49.284Z,57.75
2023-01-24T06:59:29.478Z,51.28
2023-01-24T07:01:56.411Z,49.13
2023-01-24T07:04:33.074Z,51.13
2023-01-24T07:07:08.660Z,56.72
2023-01-24T07:09:44.008Z,52.42
2023-01-24T07:12:28.066Z,53.95
2023-01-24T07:15:08.391Z,60.58
2023-01-24T07:17:43.582Z,55.17
2023-01-24T07:20:21.280Z,48.35
2023-01-24T07:22:57.278Z,66.78
2023-01-24T07:25:38.912Z,87.57
2023-01-24T07:28:16.948Z,77.88
2023-01-24T07:30:52.504Z,71.35
2023-01-24T07:33:24.989Z,78.28
2023-01-24T07:36:14.535Z,72.90
2023-01-24T07:38:48.371Z,75.60
2023-01-24T07:41:29.218Z,74.88
2023-01-24T07:44:07.057Z,72.22
2023-01-24T07:46:40.216Z,71.75
2023-01-24T07:49:12.593Z,66.15
2023-01-24T07:51:49.998Z,69.40
2023-01-24T07:54:30.750Z,84.85
2023-01-24T07:57:07.044Z,85.53
2023-01-24T07:59:41.402Z,78.07
2023-01-24T08:02:15.281Z,76.82
2023-01-24T08:04:45.135Z,78.88
2023-01-24T08:07:30.042Z,70.60
2023-01-24T08:10:08.666Z,70.90
2023-01-24T08:12:41.342Z,76.68
2023-01-24T08:15:20.533Z,81.00
2023-01-24T08:18:05.054Z,87.97
2023-01-24T08:20:40.658Z,82.43
2023-01-24T08:23:16.138Z,74.10
2023-01-24T08:25:53.537Z,74.68
2023-01-24T08:28:31.042Z,72.40
2023-01-24T08:31:08.921Z,72.75
2023-01-24T08:33:50.139Z,81.35
2023-01-24T08:36:30.796Z,74.45
2023-01-24T08:39:06.765Z,75.22
2023-01-24T08:41:37.030Z,71.95
2023-01-24T08:44:13.187Z,68.10
2023-01-24T08:46:48.578Z,61.10
2023-01-24T08:49:21.282Z,62.55
2023-01-24T08:52:00.234Z,45.53
2023-01-24T08:54:36.982Z,58.10
2023-01-24T08:57:17.029Z,57.10
2023-01-24T08:59:52.467Z,54.85
2023-01-24T09:02:36.048Z,55.53
2023-01-24T09:05:15.449Z,50.22
2023-01-24T09:07:50.602Z,50.13
2023-01-24T09:10:27.680Z,43.00
2023-01-24T09:13:10.200Z,49.05
2023-01-24T09:15:46.169Z,45.88
2023-01-24T09:18:24.599Z,38.55
2023-01-24T09:21:06.110Z,36.47
2023-01-24T09:23:44.186Z,33.25
2023-01-24T09:26:30.698Z,36.08
2023-01-24T09:29:03.233Z,36.25
2023-01-24T09:31:41.408Z,40.50
2023-01-24T09:34:17.448Z,34.05
2023-01-24T09:36:57.053Z,30.48
2023-01-24T09:39:39.170Z,34.72
2023-01-24T09:42:45.125Z,41.08
2023-01-24T09:45:36.507Z,30.55
2023-01-24T09:48:32.941Z,33.15
2023-01-24T09:51:19.985Z,48.15
2023-01-24T09:53:58.568Z,42.65
2023-01-24T09:56:47.656Z,30.13
2023-01-24T09:59:38.968Z,30.95
2023-01-24T10:02:25.891Z,30.00
2023-01-24T10:05:06.265Z,32.90
2023-01-24T10:07:58.782Z,29.88
2023-01-24T10:10:44.661Z,28.33
2023-01-24T10:13:51.768Z,33.78
2023-01-24T10:16:49.118Z,29.95
2023-01-24T10:19:30.432Z,30.63
2023-01-24T10:22:19.648Z,32.72
2023-01-24T10:24:59.582Z,32.33
2023-01-24T10:27:35.031Z,30.85
2023-01-24T10:30:18.435Z,32.17
2023-01-24T10:33:01.512Z,36.03
2023-01-24T10:35:57.830Z,32.22
2023-01-24T10:38:35.970Z,38.05
2023-01-24T10:41:21.881Z,25.50
2023-01-24T10:44:09.824Z,28.67
2023-01-24T10:47:19.666Z,21.70
2023-01-24T10:50:08.155Z,26.70
2023-01-24T10:52:43.896Z,25.63
2023-01-24T10:55:36.301Z,26.83
2023-01-24T10:58:25.301Z,26.65
2023-01-24T11:01:19.125Z,27.98
2023-01-24T11:03:51.237Z,26.00
2023-01-24T11:06:37.988Z,25.60
2023-01-24T11:09:26.222Z,24.42
2023-01-24T11:12:07.225Z,18.92
2023-01-24T11:14:50.573Z,25.30
2023-01-24T11:17:45.805Z,25.13
2023-01-24T11:20:22.926Z,22.55
2023-01-24T11:23:25.380Z,21.08
2023-01-24T11:26:10.995Z,21.15
2023-01-24T11:28:56.162Z,19.45
2023-01-24T11:31:58.811Z,27.17
2023-01-24T11:34:53.098Z,24.25
2023-01-24T11:40:41.781Z,29.67
2023-01-24T11:43:32.548Z,45.13
2023-01-24T11:46:22.957Z,28.92
2023-01-24T11:49:13.613Z,21.83
2023-01-24T11:52:06.235Z,23.17
2023-01-24T11:55:06.434Z,24.30
2023-01-24T11:58:17.222Z,25.48
2023-01-24T12:01:23.920Z,26.05
2023-01-24T12:04:38.149Z,21.48
2023-01-24T12:07:23.155Z,23.38
2023-01-24T12:10:27.623Z,22.38
2023-01-24T12:13:19.513Z,20.73
2023-01-24T12:16:29.235Z,27.13
2023-01-24T12:19:34.168Z,22.60
2023-01-24T12:22:17.170Z,21.77
2023-01-24T12:24:51.741Z,21.05
2023-01-24T12:27:35.680Z,18.67
2023-01-24T12:30:17.130Z,20.75
2023-01-24T12:33:03.478Z,21.60
2023-01-24T12:35:43.381Z,18.30
2023-01-24T12:38:33.363Z,21.65
2023-01-24T12:41:17.483Z,19.27
2023-01-24T12:44:43.788Z,16.20
2023-01-24T12:47:29.532Z,20.15
2023-01-24T12:50:46.223Z,22.13
2023-01-24T12:53:33.826Z,16.30
2023-01-24T12:56:13.108Z,16.33
2023-01-24T12:58:52.455Z,13.07
2023-01-24T13:01:40.600Z,13.57
2023-01-24T13:04:35.877Z,12.23
2023-01-24T13:07:44.287Z,12.45
2023-01-24T13:10:28.505Z,14.07
2023-01-24T13:13:09.039Z,13.63
2023-01-24T13:16:09.933Z,17.30
2023-01-24T13:18:47.709Z,43.53
2023-01-24T13:21:41.188Z,14.55
2023-01-24T13:24:34.043Z,13.80
2023-01-24T13:27:18.328Z,14.00
2023-01-24T13:29:58.919Z,13.43
2023-01-24T13:32:45.850Z,15.80
2023-01-24T13:35:25.940Z,13.70
2023-01-24T13:38:09.647Z,14.98
2023-01-24T13:40:45.015Z,18.50
2023-01-24T13:43:49.719Z,14.80
2023-01-24T13:47:09.410Z,14.55
2023-01-24T13:50:05.100Z,13.50
2023-01-24T13:52:55.198Z,14.93
2023-01-24T13:55:50.841Z,13.40
2023-01-24T13:58:35.473Z,16.58
2023-01-24T14:01:18.638Z,12.05
2023-01-24T14:04:03.435Z,15.40
2023-01-24T14:06:58.359Z,12.43
2023-01-24T14:09:35.999Z,13.57
2023-01-24T14:12:09.860Z,13.13
2023-01-24T14:15:06.293Z,15.90
2023-01-24T14:17:49.537Z,12.65
2023-01-24T14:20:45.505Z,15.07
2023-01-24T14:23:27.163Z,16.48
2023-01-24T14:26:06.653Z,22.98
2023-01-24T14:28:53.947Z,16.00
2023-01-24T14:31:34.295Z,22.83
2023-01-24T14:34:39.617Z,17.30
2023-01-24T14:37:25.508Z,18.17
2023-01-24T14:40:35.333Z,21.67
2023-01-24T14:43:35.525Z,28.27
2023-01-24T14:46:26.986Z,26.48
2023-01-24T14:49:12.972Z,25.75
2023-01-24T14:51:57.311Z,27.15
2023-01-24T14:54:42.092Z,29.20
2023-01-24T14:57:36.933Z,26.83
2023-01-24T15:00:23.347Z,31.20
2023-01-24T15:03:03.197Z,27.90
2023-01-24T15:05:55.832Z,29.10
2023-01-24T15:08:35.136Z,35.95
2023-01-24T15:11:28.614Z,30.67
2023-01-24T15:14:24.691Z,34.15
2023-01-24T15:17:02.752Z,29.15
2023-01-24T15:19:42.658Z,33.63
2023-01-24T15:22:27.577Z,35.40
2023-01-24T15:25:26.012Z,32.28
2023-01-24T15:28:14.763Z,31.25
2023-01-24T15:31:03.748Z,34.45
2023-01-24T15:33:50.013Z,35.65
2023-01-24T15:36:35.654Z,40.22
2023-01-24T15:39:28.305Z,44.63
2023-01-24T15:42:24.899Z,41.70
2023-01-24T15:47:48.760Z,72.72
2023-01-24T15:50:48.267Z,49.72
2023-01-24T15:53:33.569Z,43.45
2023-01-24T15:56:15.219Z,55.38
2023-01-24T15:58:55.307Z,51.08
2023-01-24T16:01:31.469Z,51.83
2023-01-24T16:04:26.476Z,44.08
2023-01-24T16:07:04.594Z,43.30
2023-01-24T16:09:37.616Z,36.53
2023-01-24T16:12:21.167Z,50.38
2023-01-24T16:15:08.707Z,43.53
2023-01-24T16:17:47.206Z,44.15
2023-01-24T16:20:34.992Z,47.72
2023-01-24T16:23:15.410Z,50.47
2023-01-24T16:25:54.391Z,49.88
2023-01-24T16:28:24.794Z,49.40
2023-01-24T16:31:05.769Z,64.60
2023-01-24T16:33:53.980Z,64.05
2023-01-24T16:36:35.255Z,93.70
2023-01-24T16:39:13.828Z,134.95
2023-01-24T16:41:51.150Z,139.25
2023-01-24T16:44:35.324Z,128.07
2023-01-24T16:47:13.841Z,101.18
2023-01-24T16:49:51.951Z,82.20
2023-01-24T16:52:35.123Z,65.47
2023-01-24T16:57:48.755Z,54.58
2023-01-24T17:00:40.711Z,36.30
2023-01-24T17:03:25.696Z,57.95
2023-01-24T17:06:01.247Z,58.83
2023-01-24T17:08:50.329Z,54.42
2023-01-24T17:11:28.596Z,59.38
2023-01-24T17:14:06.878Z,61.78
2023-01-24T17:16:52.987Z,63.05
2023-01-24T17:19:33.981Z,53.22
2023-01-24T17:22:07.215Z,78.90
2023-01-24T17:24:45.202Z,129.07
2023-01-24T17:27:37.551Z,141.15
2023-01-24T17:30:10.996Z,115.75
2023-01-24T17:32:51.637Z,91.22
2023-01-24T17:35:26.333Z,81.20
2023-01-24T17:38:03.330Z,65.13
2023-01-24T17:40:46.506Z,67.07
2023-01-24T17:43:32.767Z,68.30
2023-01-24T17:46:19.403Z,65.85
2023-01-24T17:48:59.324Z,84.05
2023-01-24T17:51:37.353Z,106.45
2023-01-24T17:54:19.278Z,123.38
2023-01-24T17:56:54.049Z,130.77
2023-01-24T17:59:31.459Z,100.43
2023-01-24T18:02:15.075Z,82.32
2023-01-24T18:04:56.294Z,65.55
2023-01-24T18:07:33.299Z,68.53
2023-01-24T18:10:13.047Z,69.65
2023-01-24T18:12:51.802Z,68.85
2023-01-24T18:15:25.032Z,86.80
2023-01-24T18:18:12.764Z,97.38
2023-01-24T18:20:50.393Z,87.40
2023-01-24T18:23:31.317Z,85.90
2023-01-24T18:26:10.061Z,83.90
2023-01-24T18:28:52.968Z,91.75
2023-01-24T18:31:34.899Z,68.55
2023-01-24T18:34:15.610Z,70.78
2023-01-24T18:36:50.464Z,59.42
2023-01-24T18:39:31.199Z,83.80
2023-01-24T18:42:14.312Z,89.95
2023-01-24T18:44:48.946Z,73.10
2023-01-24T18:47:35.392Z,72.88
2023-01-24T18:50:19.126Z,72.97
2023-01-24T18:55:30.888Z,66.90
2023-01-24T18:58:04.129Z,81.95
2023-01-24T19:00:42.641Z,129.82
2023-01-24T19:03:18.760Z,154.23
2023-01-24T19:06:02.139Z,128.05
2023-01-24T19:09:00.447Z,182.27
2023-01-24T19:11:46.146Z,148.60
2023-01-24T19:14:32.708Z,116.70
2023-01-24T19:17:18.238Z,108.95
2023-01-24T19:19:53.366Z,107.75
2023-01-24T19:22:34.607Z,106.43
2023-01-24T19:25:13.413Z,81.75
2023-01-24T19:27:57.542Z,102.93
2023-01-24T19:30:43.478Z,89.32
2023-01-24T19:33:19.972Z,82.55
2023-01-24T19:36:04.059Z,77.15
2023-01-24T19:38:42.274Z,63.55
2023-01-24T19:41:25.730Z,66.97
2023-01-24T19:44:19.171Z,69.20
2023-01-24T19:47:07.862Z,74.75
2023-01-24T19:49:46.495Z,66.95
2023-01-24T19:52:27.279Z,77.10
2023-01-24T19:55:10.867Z,87.05
2023-01-24T19:57:54.509Z,100.75
2023-01-24T20:00:31.995Z,82.53
2023-01-24T20:03:06.705Z,83.75
2023-01-24T20:05:41.877Z,105.57
2023-01-24T20:08:20.209Z,79.45
2023-01-24T20:10:52.714Z,71.00
2023-01-24T20:13:31.451Z,83.95
2023-01-24T20:16:19.631Z,83.70
2023-01-24T20:19:10.969Z,109.50
2023-01-24T20:22:04.289Z,103.70
2023-01-24T20:24:48.317Z,100.85
2023-01-24T20:27:36.732Z,81.22
2023-01-24T20:30:19.995Z,86.45
2023-01-24T20:32:55.377Z,84.70
2023-01-24T20:35:47.926Z,70.47
2023-01-24T20:38:25.909Z,84.13
2023-01-24T20:41:10.411Z,77.90
2023-01-24T20:43:52.406Z,65.95
2023-01-24T20:46:29.229Z,68.22
2023-01-24T20:49:08.051Z,77.38
2023-01-24T20:51:48.335Z,80.82
2023-01-24T20:54:28.909Z,80.35
2023-01-24T20:57:06.491Z,69.80
2023-01-24T20:59:49.845Z,64.55
2023-01-24T21:02:30.468Z,77.47
2023-01-24T21:05:10.798Z,78.32
2023-01-24T21:08:00.088Z,76.18
2023-01-24T21:10:38.471Z,80.50
2023-01-24T21:13:35.808Z,88.25
2023-01-24T21:16:31.009Z,65.30
2023-01-24T21:19:13.715Z,75.53
2023-01-24T21:21:54.399Z,71.47
2023-01-24T21:24:34.962Z,73.95
2023-01-24T21:27:13.297Z,71.55
2023-01-24T21:29:48.208Z,66.95
2023-01-24T21:32:23.373Z,69.43
2023-01-24T21:35:04.246Z,66.53
2023-01-24T21:37:44.832Z,67.13
2023-01-24T21:40:25.429Z,64.93
2023-01-24T21:43:27.315Z,92.18
2023-01-24T21:46:10.877Z,123.47
2023-01-24T21:49:04.652Z,124.45
2023-01-24T21:51:40.948Z,159.52
2023-01-24T21:54:38.962Z,139.30
2023-01-24T21:57:32.610Z,210.77
2023-01-24T22:00:15.217Z,168.52
2023-01-24T22:05:55.617Z,136.80
2023-01-24T22:08:37.682Z,148.27
2023-01-24T22:11:29.802Z,145.60
2023-01-24T22:14:20.562Z,132.88
2023-01-24T22:17:02.475Z,160.20
2023-01-24T22:19:52.718Z,165.15
2023-01-24T22:22:56.907Z,115.90
2023-01-24T22:28:28.324Z,139.35
2023-01-24T22:31:06.298Z,91.38
2023-01-24T22:33:41.840Z,92.13
2023-01-24T22:36:15.157Z,115.55
2023-01-24T22:41:37.521Z,88.85
2023-01-24T22:44:14.955Z,88.07
2023-01-24T22:46:52.001Z,102.63
2023-01-24T22:49:24.876Z,119.45
2023-01-24T22:52:05.171Z,97.03
2023-01-24T22:54:40.644Z,115.28
2023-01-24T22:57:18.216Z,118.22
2023-01-24T23:00:05.352Z,129.05
2023-01-24T23:02:43.686Z,115.45
2023-01-24T23:05:24.719Z,114.57
2023-01-24T23:08:03.941Z,121.88
2023-01-24T23:10:41.787Z,121.28
2023-01-24T23:13:39.938Z,128.45
2023-01-24T23:16:24.098Z,134.23
2023-01-24T23:19:26.154Z,140.95
2023-01-24T23:22:09.566Z,111.65
2023-01-24T23:24:48.899Z,104.50
2023-01-24T23:27:26.950Z,110.13
2023-01-24T23:30:20.220Z,109.65
2023-01-24T23:33:30.013Z,108.80
2023-01-24T23:36:08.815Z,131.18
2023-01-24T23:38:47.349Z,132.07
2023-01-24T23:41:22.057Z,132.38
2023-01-24T23:43:56.128Z,133.02
2023-01-24T23:46:33.863Z,142.00
2023-01-24T23:49:09.938Z,118.03
2023-01-24T23:51:47.021Z,132.38
2023-01-24T23:54:22.170Z,117.43
2023-01-24T23:56:57.779Z,132.07
2023-01-24T23:59:33.116Z,139.05
